Time;durP1;ratioP1;P1;durP2;ratioP2;P2;SDS_P1;SDS_P2;PMS_P1;PMS_P2;Temp;Humidity;BMP_temperature;BMP_pressure;BME280_temperature;BME280_humidity;BME280_pressure;Samples;Min_cycle;Max_cycle;Signal;HPM_P1;HPM_P2
2022/01/05 00:01:36;;;;;;;;;0.00;0.00;;;;;;;;4981948;28;11498;-79
2022/01/05 00:04:04;;;;;;;;;0.75;0.75;;;;;;;;4983034;28;11648;-84
2022/01/05 00:06:31;;;;;;;;;0.50;0.50;;;;;;;;4984725;28;12360;-80
2022/01/05 00:09:00;;;;;;;;;0.75;0.75;;;;;;;;4980472;28;11542;-88
2022/01/05 00:11:27;;;;;;;;;1.00;0.00;;;;;;;;4986763;28;11558;-81
2022/01/05 00:13:56;;;;;;;;;0.00;0.00;;;;;;;;4983327;28;11568;-84
2022/01/05 00:16:23;;;;;;;;;0.00;0.00;;;;;;;;4985568;28;11537;-81
2022/01/05 00:18:50;;;;;;;;;2.00;1.00;;;;;;;;4985639;28;11571;-77
2022/01/05 00:21:17;;;;;;;;;0.50;0.00;;;;;;;;4984284;28;11534;-83
2022/01/05 00:23:45;;;;;;;;;0.25;0.25;;;;;;;;4985802;28;11559;-76
2022/01/05 00:26:13;;;;;;;;;2.00;0.00;;;;;;;;4983791;28;11677;-84
2022/01/05 00:28:40;;;;;;;;;3.00;1.00;;;;;;;;4984524;28;11558;-81
2022/01/05 00:31:08;;;;;;;;;1.50;0.00;;;;;;;;4984520;28;12416;-82
2022/01/05 00:33:35;;;;;;;;;1.50;0.00;;;;;;;;4984526;28;11559;-81
2022/01/05 00:36:03;;;;;;;;;1.00;1.00;;;;;;;;4985428;28;11570;-83
2022/01/05 00:38:31;;;;;;;;;0.00;0.00;;;;;;;;4984277;28;11557;-79
2022/01/05 00:40:58;;;;;;;;;1.00;1.00;;;;;;;;4994390;28;11645;-75
2022/01/05 00:43:26;;;;;;;;;0.00;0.00;;;;;;;;4985578;28;11696;-74
2022/01/05 00:45:54;;;;;;;;;2.50;1.75;;;;;;;;4986256;28;11665;-77
2022/01/05 00:48:21;;;;;;;;;1.00;1.00;;;;;;;;4983115;28;11570;-74
2022/01/05 00:50:48;;;;;;;;;1.00;0.00;;;;;;;;4983863;28;11572;-81
2022/01/05 00:53:15;;;;;;;;;2.75;1.00;;;;;;;;4984593;28;11554;-81
2022/01/05 00:55:43;;;;;;;;;0.00;0.00;;;;;;;;4982748;28;11583;-76
2022/01/05 00:58:10;;;;;;;;;2.00;2.00;;;;;;;;4985906;28;11560;-77
2022/01/05 01:00:39;;;;;;;;;1.00;1.00;;;;;;;;4985958;28;11529;-79
2022/01/05 01:03:06;;;;;;;;;2.00;2.00;;;;;;;;5001949;28;11561;-78
2022/01/05 01:05:33;;;;;;;;;2.00;2.00;;;;;;;;5002238;28;12394;-76
2022/01/05 01:08:00;;;;;;;;;1.00;1.00;;;;;;;;5004399;28;11566;-83
2022/01/05 01:10:28;;;;;;;;;0.25;0.25;;;;;;;;5003550;28;11559;-75
2022/01/05 01:12:55;;;;;;;;;2.75;1.00;;;;;;;;5002530;28;11568;-84
2022/01/05 01:15:22;;;;;;;;;0.00;0.00;;;;;;;;5001773;28;11132;-74
2022/01/05 01:17:51;;;;;;;;;1.00;1.00;;;;;;;;5002098;28;12047;-80
2022/01/05 01:20:20;;;;;;;;;1.00;1.00;;;;;;;;5002505;28;11673;-80
2022/01/05 01:22:47;;;;;;;;;0.25;0.25;;;;;;;;4991822;28;12286;-75
2022/01/05 01:25:14;;;;;;;;;1.50;1.50;;;;;;;;5004855;28;12025;-75
2022/01/05 01:27:43;;;;;;;;;4.00;2.00;;;;;;;;5002842;28;11543;-86
2022/01/05 01:30:11;;;;;;;;;2.00;0.75;;;;;;;;4992329;28;11589;-85
2022/01/05 01:32:39;;;;;;;;;1.75;1.00;;;;;;;;5000266;28;11545;-77
2022/01/05 01:35:09;;;;;;;;;1.00;1.00;;;;;;;;5002297;28;11573;-86
2022/01/05 01:37:36;;;;;;;;;1.00;1.00;;;;;;;;5001964;28;11686;-82
2022/01/05 01:40:04;;;;;;;;;4.00;1.00;;;;;;;;5002578;28;11526;-76
2022/01/05 01:42:31;;;;;;;;;1.00;1.00;;;;;;;;5001157;28;11542;-85
2022/01/05 01:44:59;;;;;;;;;1.25;1.25;;;;;;;;5002693;28;11566;-87
2022/01/05 01:47:26;;;;;;;;;0.75;0.75;;;;;;;;5004215;28;12316;-81
2022/01/05 01:49:53;;;;;;;;;1.00;1.00;;;;;;;;5003503;28;11558;-73
2022/01/05 01:52:22;;;;;;;;;1.00;1.00;;;;;;;;5001768;28;11682;-75
2022/01/05 01:54:49;;;;;;;;;1.50;0.50;;;;;;;;5004487;28;11571;-76
2022/01/05 01:57:17;;;;;;;;;1.50;1.50;;;;;;;;5001850;28;11553;-76
2022/01/05 01:59:44;;;;;;;;;2.00;0.00;;;;;;;;5003267;28;11593;-86
2022/01/05 02:02:12;;;;;;;;;1.00;1.00;;;;;;;;5000604;28;12326;-85
2022/01/05 02:04:41;;;;;;;;;4.00;1.00;;;;;;;;5004273;28;11570;-85
2022/01/05 02:07:08;;;;;;;;;1.00;1.00;;;;;;;;5003462;28;11538;-81
2022/01/05 02:09:38;;;;;;;;;1.75;1.75;;;;;;;;5004899;28;11638;-79
2022/01/05 02:12:06;;;;;;;;;4.00;4.00;;;;;;;;5001917;28;11563;-81
2022/01/05 02:14:34;;;;;;;;;1.75;0.75;;;;;;;;4995843;28;11590;-79
2022/01/05 02:17:04;;;;;;;;;1.00;1.00;;;;;;;;5004061;28;11569;-76
2022/01/05 02:19:32;;;;;;;;;2.50;1.00;;;;;;;;5005284;28;11567;-74
2022/01/05 02:22:01;;;;;;;;;3.00;1.00;;;;;;;;5007243;28;11579;-86
2022/01/05 02:24:28;;;;;;;;;0.25;0.25;;;;;;;;5002943;28;11664;-79
2022/01/05 02:26:55;;;;;;;;;1.00;1.00;;;;;;;;5007734;28;11673;-78
2022/01/05 02:29:24;;;;;;;;;2.00;1.00;;;;;;;;5002209;28;11617;-77
2022/01/05 02:31:52;;;;;;;;;3.00;3.00;;;;;;;;5006077;28;12324;-87
2022/01/05 02:34:20;;;;;;;;;0.75;0.75;;;;;;;;5008355;28;11601;-74
2022/01/05 02:36:47;;;;;;;;;2.00;2.00;;;;;;;;5003067;28;11610;-77
2022/01/05 02:39:16;;;;;;;;;1.25;1.25;;;;;;;;5007191;28;11545;-78
2022/01/05 02:41:43;;;;;;;;;2.00;1.75;;;;;;;;5005996;28;11544;-78
2022/01/05 02:44:11;;;;;;;;;1.00;1.00;;;;;;;;5007294;28;11558;-85
2022/01/05 02:46:38;;;;;;;;;2.00;0.75;;;;;;;;5005921;28;11678;-85
2022/01/05 02:49:05;;;;;;;;;0.00;0.00;;;;;;;;5006917;28;11569;-78
2022/01/05 02:51:33;;;;;;;;;0.25;0.25;;;;;;;;5006111;28;11721;-73
2022/01/05 02:54:01;;;;;;;;;3.50;1.00;;;;;;;;5004912;28;11603;-74
2022/01/05 02:56:30;;;;;;;;;0.00;0.00;;;;;;;;5007128;28;11524;-75
2022/01/05 02:58:57;;;;;;;;;4.00;1.50;;;;;;;;5004413;28;11549;-74
2022/01/05 03:01:25;;;;;;;;;4.25;1.50;;;;;;;;5005365;28;11535;-75
2022/01/05 03:03:52;;;;;;;;;1.75;1.00;;;;;;;;5005876;28;11540;-77
2022/01/05 03:06:19;;;;;;;;;1.25;0.00;;;;;;;;5007056;28;12365;-83
2022/01/05 03:08:46;;;;;;;;;1.00;1.00;;;;;;;;5005975;28;11572;-83
2022/01/05 03:11:14;;;;;;;;;5.00;3.50;;;;;;;;5005975;28;11592;-77
2022/01/05 03:13:43;;;;;;;;;4.25;3.50;;;;;;;;5005851;28;11634;-74
2022/01/05 03:16:10;;;;;;;;;2.00;2.00;;;;;;;;5004957;28;11558;-74
2022/01/05 03:18:37;;;;;;;;;1.50;1.00;;;;;;;;5007676;28;11656;-80
2022/01/05 03:21:05;;;;;;;;;1.25;1.25;;;;;;;;5004708;28;11605;-76
2022/01/05 03:23:32;;;;;;;;;0.25;0.25;;;;;;;;5005525;28;11575;-86
2022/01/05 03:25:59;;;;;;;;;1.75;1.75;;;;;;;;5004935;28;11542;-79
2022/01/05 03:28:26;;;;;;;;;2.00;0.50;;;;;;;;5005272;28;11542;-73
2022/01/05 03:30:55;;;;;;;;;0.00;0.00;;;;;;;;5003258;28;11483;-75
2022/01/05 03:33:24;;;;;;;;;1.75;1.00;;;;;;;;5006514;28;11562;-78
2022/01/05 03:35:51;;;;;;;;;4.50;2.00;;;;;;;;5005332;28;11544;-77
2022/01/05 03:38:19;;;;;;;;;1.25;1.25;;;;;;;;5005452;28;11581;-76
2022/01/05 03:40:51;;;;;;;;;1.00;1.00;;;;;;;;5005642;28;11575;-74
2022/01/05 03:43:18;;;;;;;;;5.00;2.00;;;;;;;;5004302;28;11569;-80
2022/01/05 03:45:45;;;;;;;;;1.00;1.00;;;;;;;;5003366;28;12343;-75
2022/01/05 03:48:16;;;;;;;;;3.50;1.00;;;;;;;;5006225;28;11513;-81
2022/01/05 03:50:43;;;;;;;;;4.00;1.00;;;;;;;;5005868;28;11545;-77
2022/01/05 03:53:11;;;;;;;;;3.00;1.00;;;;;;;;5007423;28;11525;-77
2022/01/05 03:55:40;;;;;;;;;2.00;2.00;;;;;;;;5004263;28;11589;-87
2022/01/05 03:58:08;;;;;;;;;1.00;1.00;;;;;;;;5006079;28;11601;-76
2022/01/05 04:00:37;;;;;;;;;2.00;2.00;;;;;;;;5002988;28;11489;-76
2022/01/05 04:03:04;;;;;;;;;1.75;1.75;;;;;;;;5003530;28;11584;-75
2022/01/05 04:05:33;;;;;;;;;3.25;1.00;;;;;;;;5008168;28;11551;-82
2022/01/05 04:08:01;;;;;;;;;1.00;1.00;;;;;;;;5005026;28;11630;-75
2022/01/05 04:10:29;;;;;;;;;4.00;1.75;;;;;;;;5005468;28;11550;-79
2022/01/05 04:12:56;;;;;;;;;3.00;1.25;;;;;;;;4986596;28;11614;-80
2022/01/05 04:15:23;;;;;;;;;2.00;2.00;;;;;;;;5005626;28;11653;-84
2022/01/05 04:17:51;;;;;;;;;3.50;1.75;;;;;;;;4993361;28;11599;-87
2022/01/05 04:20:20;;;;;;;;;3.50;2.50;;;;;;;;5004849;28;11544;-79
2022/01/05 04:22:49;;;;;;;;;6.00;4.00;;;;;;;;5004389;28;11603;-81
2022/01/05 04:25:16;;;;;;;;;5.00;5.00;;;;;;;;5005448;28;11548;-82
2022/01/05 04:27:43;;;;;;;;;2.00;2.00;;;;;;;;5007643;28;11566;-84
2022/01/05 04:30:12;;;;;;;;;2.00;2.00;;;;;;;;5002557;28;11549;-83
2022/01/05 04:32:40;;;;;;;;;4.00;4.00;;;;;;;;5010272;28;11532;-86
2022/01/05 04:35:11;;;;;;;;;4.25;2.00;;;;;;;;5008410;28;11622;-78
2022/01/05 04:37:38;;;;;;;;;1.75;1.75;;;;;;;;5005260;28;11552;-75
2022/01/05 04:40:09;;;;;;;;;4.50;4.00;;;;;;;;5004111;28;11560;-77
2022/01/05 04:42:36;;;;;;;;;3.00;3.00;;;;;;;;5007662;28;11546;-80
2022/01/05 04:45:04;;;;;;;;;2.00;2.00;;;;;;;;5004876;28;11674;-79
2022/01/05 04:47:31;;;;;;;;;1.25;1.25;;;;;;;;5004021;28;11566;-79
2022/01/05 04:49:59;;;;;;;;;3.50;2.00;;;;;;;;5004325;28;11652;-75
2022/01/05 04:52:26;;;;;;;;;2.50;2.00;;;;;;;;5001105;28;11584;-84
2022/01/05 04:54:53;;;;;;;;;1.25;1.25;;;;;;;;5004296;28;11677;-86
2022/01/05 04:57:22;;;;;;;;;2.00;2.00;;;;;;;;4995098;28;13096;-83
2022/01/05 04:59:49;;;;;;;;;1.50;1.50;;;;;;;;5009205;28;11580;-83
2022/01/05 05:02:16;;;;;;;;;2.00;2.00;;;;;;;;5002630;28;11657;-79
2022/01/05 05:04:44;;;;;;;;;1.00;1.00;;;;;;;;5011563;28;11613;-83
2022/01/05 05:07:11;;;;;;;;;1.00;1.00;;;;;;;;5003911;28;11566;-81
2022/01/05 05:09:40;;;;;;;;;2.00;2.00;;;;;;;;5003005;28;11569;-82
2022/01/05 05:12:09;;;;;;;;;1.50;1.50;;;;;;;;5006507;28;11678;-75
2022/01/05 05:14:38;;;;;;;;;1.00;1.00;;;;;;;;5004615;28;11564;-76
2022/01/05 05:17:05;;;;;;;;;5.00;3.50;;;;;;;;5002866;28;11565;-79
2022/01/05 05:19:33;;;;;;;;;2.00;1.25;;;;;;;;5002161;28;11538;-79
2022/01/05 05:22:00;;;;;;;;;1.75;1.00;;;;;;;;4999921;28;12410;-76
2022/01/05 05:24:28;;;;;;;;;1.25;1.25;;;;;;;;5002837;28;11538;-82
2022/01/05 05:26:55;;;;;;;;;1.75;1.00;;;;;;;;4998930;28;11591;-81
2022/01/05 05:29:22;;;;;;;;;3.25;1.25;;;;;;;;5003138;28;11531;-85
2022/01/05 05:31:51;;;;;;;;;1.75;1.75;;;;;;;;5001328;28;11532;-87
2022/01/05 05:34:19;;;;;;;;;1.00;1.00;;;;;;;;5005043;28;11524;-89
2022/01/05 05:36:46;;;;;;;;;0.50;0.00;;;;;;;;5003394;28;11672;-86
2022/01/05 05:39:13;;;;;;;;;1.00;1.00;;;;;;;;5001236;28;11614;-89
2022/01/05 05:41:40;;;;;;;;;4.00;1.00;;;;;;;;5001730;28;12322;-88
2022/01/05 05:44:08;;;;;;;;;1.00;1.00;;;;;;;;5003264;28;11654;-86
2022/01/05 05:46:35;;;;;;;;;1.25;1.25;;;;;;;;5001678;28;12192;-87
2022/01/05 05:49:03;;;;;;;;;3.00;1.00;;;;;;;;5003179;28;11567;-85
2022/01/05 05:51:31;;;;;;;;;7.75;4.00;;;;;;;;5005140;28;11676;-86
2022/01/05 05:53:58;;;;;;;;;0.25;0.25;;;;;;;;5005033;28;11575;-84
2022/01/05 05:56:25;;;;;;;;;1.00;1.00;;;;;;;;5003941;28;11574;-83
2022/01/05 05:58:53;;;;;;;;;1.00;1.00;;;;;;;;5002478;28;11665;-84
2022/01/05 06:01:20;;;;;;;;;3.25;1.00;;;;;;;;5002032;28;11601;-85
2022/01/05 06:03:48;;;;;;;;;1.00;1.00;;;;;;;;5006527;28;11545;-84
2022/01/05 06:06:16;;;;;;;;;4.00;1.25;;;;;;;;5006333;28;11558;-86
2022/01/05 06:08:44;;;;;;;;;1.25;1.25;;;;;;;;5005340;28;11566;-86
2022/01/05 06:11:11;;;;;;;;;3.50;1.00;;;;;;;;5003291;28;11562;-84
2022/01/05 06:13:38;;;;;;;;;1.00;1.00;;;;;;;;5006330;28;11571;-85
2022/01/05 06:16:06;;;;;;;;;5.00;0.50;;;;;;;;4998313;28;11569;-86
2022/01/05 06:18:33;;;;;;;;;0.25;0.25;;;;;;;;5005228;28;11568;-86
2022/01/05 06:21:00;;;;;;;;;0.00;0.00;;;;;;;;5004734;28;11557;-85
2022/01/05 06:23:29;;;;;;;;;2.50;0.50;;;;;;;;5002030;28;11561;-84
2022/01/05 06:25:56;;;;;;;;;1.25;1.25;;;;;;;;5012709;28;11553;-88
2022/01/05 06:28:23;;;;;;;;;3.50;1.00;;;;;;;;5005696;28;11557;-87
2022/01/05 06:30:51;;;;;;;;;0.25;0.25;;;;;;;;5006512;28;11517;-83
2022/01/05 06:33:18;;;;;;;;;8.00;1.00;;;;;;;;5006521;28;11568;-82
2022/01/05 06:35:45;;;;;;;;;1.00;1.00;;;;;;;;5005122;28;11607;-82
2022/01/05 06:38:14;;;;;;;;;4.00;1.00;;;;;;;;5005019;28;11537;-82
2022/01/05 06:40:42;;;;;;;;;1.75;0.00;;;;;;;;5005659;28;11662;-79
2022/01/05 06:43:09;;;;;;;;;2.00;0.25;;;;;;;;5006965;28;11644;-82
2022/01/05 06:45:37;;;;;;;;;1.50;0.25;;;;;;;;5005644;28;11572;-82
2022/01/05 06:48:05;;;;;;;;;4.75;0.75;;;;;;;;5007181;28;11597;-82
2022/01/05 06:50:32;;;;;;;;;4.25;1.50;;;;;;;;5004766;28;11669;-82
2022/01/05 06:52:59;;;;;;;;;1.00;1.00;;;;;;;;4993917;28;11559;-83
2022/01/05 06:55:27;;;;;;;;;1.75;1.00;;;;;;;;5007709;28;11541;-83
2022/01/05 06:57:55;;;;;;;;;2.00;1.00;;;;;;;;5005002;28;11565;-83
2022/01/05 07:00:24;;;;;;;;;2.50;1.00;;;;;;;;5007750;28;11565;-82
2022/01/05 07:02:51;;;;;;;;;2.50;1.00;;;;;;;;5001498;28;11573;-85
2022/01/05 07:05:19;;;;;;;;;2.00;0.00;;;;;;;;5008449;28;11539;-84
2022/01/05 07:07:46;;;;;;;;;0.00;0.00;;;;;;;;5006174;28;11579;-83
2022/01/05 07:10:14;;;;;;;;;1.00;0.00;;;;;;;;5006460;28;11660;-85
2022/01/05 07:12:41;;;;;;;;;0.00;0.00;;;;;;;;5007647;28;11670;-85
2022/01/05 07:15:12;;;;;;;;;0.25;0.25;;;;;;;;4994862;28;11574;-84
2022/01/05 07:17:39;;;;;;;;;2.50;1.75;;;;;;;;5007769;28;11573;-84
2022/01/05 07:20:08;;;;;;;;;1.25;1.25;;;;;;;;5006156;28;11690;-85
2022/01/05 07:22:36;;;;;;;;;2.00;2.00;;;;;;;;5007223;28;11634;-81
2022/01/05 07:25:03;;;;;;;;;1.00;1.00;;;;;;;;5005754;28;12353;-84
2022/01/05 07:27:31;;;;;;;;;1.00;1.00;;;;;;;;5007233;28;11559;-83
2022/01/05 07:29:58;;;;;;;;;0.25;0.25;;;;;;;;5005013;28;11590;-84
2022/01/05 07:32:28;;;;;;;;;3.25;1.00;;;;;;;;5003993;28;11492;-80
2022/01/05 07:34:55;;;;;;;;;1.00;1.00;;;;;;;;5004819;28;12365;-83
2022/01/05 07:37:23;;;;;;;;;0.50;0.50;;;;;;;;4998222;28;11572;-74
2022/01/05 07:39:50;;;;;;;;;3.50;1.00;;;;;;;;5004574;28;11536;-73
2022/01/05 07:42:18;;;;;;;;;4.00;4.00;;;;;;;;5000895;28;11559;-73
2022/01/05 07:44:45;;;;;;;;;1.50;1.50;;;;;;;;5004118;28;11581;-74
2022/01/05 07:47:13;;;;;;;;;1.75;1.50;;;;;;;;5003987;28;12283;-74
2022/01/05 07:49:42;;;;;;;;;4.00;2.00;;;;;;;;5002197;28;11554;-74
2022/01/05 07:52:09;;;;;;;;;3.50;1.00;;;;;;;;5002012;28;11558;-73
2022/01/05 07:54:37;;;;;;;;;4.25;2.00;;;;;;;;5002540;28;11560;-72
2022/01/05 07:57:05;;;;;;;;;4.00;4.00;;;;;;;;5002142;28;11594;-76
2022/01/05 07:59:32;;;;;;;;;4.00;4.00;;;;;;;;5003002;28;11739;-73
2022/01/05 08:01:59;;;;;;;;;2.00;2.00;;;;;;;;5003686;28;11543;-73
2022/01/05 08:04:27;;;;;;;;;0.00;0.00;;;;;;;;5005595;28;11564;-73
2022/01/05 08:06:55;;;;;;;;;2.00;2.00;;;;;;;;5005047;28;11560;-75
2022/01/05 08:09:22;;;;;;;;;5.00;2.50;;;;;;;;5005322;28;11555;-75
2022/01/05 08:11:50;;;;;;;;;1.75;1.75;;;;;;;;5002748;28;11611;-75
2022/01/05 08:14:17;;;;;;;;;2.00;2.00;;;;;;;;5004986;28;11570;-75
2022/01/05 08:16:44;;;;;;;;;6.00;2.00;;;;;;;;5002808;28;11590;-74
2022/01/05 08:19:11;;;;;;;;;1.25;1.25;;;;;;;;5003972;28;11569;-76
2022/01/05 08:21:39;;;;;;;;;1.00;1.00;;;;;;;;5003163;28;11580;-74
2022/01/05 08:24:07;;;;;;;;;3.50;3.50;;;;;;;;5005599;28;11664;-75
2022/01/05 08:26:35;;;;;;;;;2.50;2.00;;;;;;;;5003740;28;11593;-73
2022/01/05 08:29:02;;;;;;;;;5.25;4.00;;;;;;;;5003295;28;11579;-74
2022/01/05 08:31:29;;;;;;;;;1.00;1.00;;;;;;;;5004047;28;11559;-75
2022/01/05 08:33:59;;;;;;;;;2.00;2.00;;;;;;;;5002640;28;11706;-74
2022/01/05 08:36:26;;;;;;;;;2.00;2.00;;;;;;;;5002259;28;12378;-74
2022/01/05 08:38:54;;;;;;;;;2.00;2.00;;;;;;;;5002639;28;11555;-74
2022/01/05 08:41:23;;;;;;;;;3.00;2.00;;;;;;;;5003204;28;11556;-75
2022/01/05 08:43:50;;;;;;;;;6.50;6.00;;;;;;;;5003354;28;11550;-75
2022/01/05 08:46:17;;;;;;;;;1.50;1.00;;;;;;;;5001475;28;11594;-75
2022/01/05 08:48:45;;;;;;;;;1.25;1.25;;;;;;;;4992312;28;11562;-75
2022/01/05 08:51:12;;;;;;;;;2.00;2.00;;;;;;;;5000602;28;12495;-75
2022/01/05 08:53:40;;;;;;;;;2.00;2.00;;;;;;;;5001370;28;11618;-75
2022/01/05 08:56:07;;;;;;;;;1.00;1.00;;;;;;;;5003110;28;11632;-75
2022/01/05 08:58:36;;;;;;;;;1.00;1.00;;;;;;;;5010928;28;11597;-75
2022/01/05 09:01:03;;;;;;;;;1.25;0.00;;;;;;;;4998467;28;11497;-75
2022/01/05 09:03:31;;;;;;;;;2.00;2.00;;;;;;;;5003434;28;11553;-75
2022/01/05 09:06:00;;;;;;;;;5.50;4.00;;;;;;;;5004304;28;11583;-76
2022/01/05 09:08:27;;;;;;;;;3.50;3.50;;;;;;;;5000386;28;11558;-75
2022/01/05 09:10:55;;;;;;;;;2.00;2.00;;;;;;;;5001731;28;12487;-75
2022/01/05 09:13:23;;;;;;;;;1.00;1.00;;;;;;;;5001758;28;11561;-75
2022/01/05 09:15:52;;;;;;;;;7.00;3.50;;;;;;;;5001536;28;11581;-75
2022/01/05 09:18:19;;;;;;;;;5.75;5.75;;;;;;;;5002564;28;11541;-75
2022/01/05 09:20:46;;;;;;;;;4.00;1.25;;;;;;;;5001045;28;11588;-75
2022/01/05 09:23:13;;;;;;;;;2.50;2.50;;;;;;;;5004108;28;11543;-75
2022/01/05 09:25:42;;;;;;;;;4.50;1.75;;;;;;;;5000822;28;11726;-76
2022/01/05 09:28:09;;;;;;;;;4.75;4.25;;;;;;;;5002224;28;11587;-74
2022/01/05 09:30:37;;;;;;;;;1.75;0.75;;;;;;;;5000478;28;11516;-75
2022/01/05 09:33:07;;;;;;;;;1.75;1.75;;;;;;;;5004867;28;11518;-74
2022/01/05 09:35:35;;;;;;;;;4.75;4.00;;;;;;;;5002581;28;11003;-76
2022/01/05 09:38:32;;;;;;;;;5.50;5.50;;;;;;;;5001248;28;11626;-76
2022/01/05 09:43:55;;;;;;;;;4.25;4.25;;;;;;;;5002741;28;12304;-76
2022/01/05 09:46:33;;;;;;;;;6.50;6.50;;;;;;;;5002382;28;11628;-76
2022/01/05 09:49:11;;;;;;;;;5.00;5.00;;;;;;;;5002771;28;11551;-77
2022/01/05 09:51:41;;;;;;;;;5.75;4.00;;;;;;;;5000490;28;12339;-75
2022/01/05 09:54:11;;;;;;;;;6.00;5.00;;;;;;;;5004339;28;11555;-74
2022/01/05 09:56:38;;;;;;;;;3.50;3.50;;;;;;;;5001194;28;11731;-75
2022/01/05 09:59:06;;;;;;;;;4.00;4.00;;;;;;;;5004406;28;11682;-74
2022/01/05 10:01:37;;;;;;;;;1.75;1.75;;;;;;;;5001201;28;12464;-75
2022/01/05 10:04:06;;;;;;;;;4.00;4.00;;;;;;;;5003121;28;11642;-74
2022/01/05 10:06:34;;;;;;;;;2.75;2.00;;;;;;;;5002281;28;11571;-74
2022/01/05 10:09:01;;;;;;;;;5.50;4.00;;;;;;;;5002652;28;11672;-73
2022/01/05 10:11:30;;;;;;;;;4.25;4.25;;;;;;;;5003169;28;11596;-74
2022/01/05 10:13:57;;;;;;;;;3.50;3.50;;;;;;;;5002253;28;11583;-74
2022/01/05 10:16:25;;;;;;;;;10.25;5.00;;;;;;;;5000544;28;11575;-74
2022/01/05 10:18:52;;;;;;;;;4.50;3.00;;;;;;;;5002866;28;12410;-75
2022/01/05 10:21:21;;;;;;;;;2.00;2.00;;;;;;;;5003363;28;11580;-75
2022/01/05 10:23:49;;;;;;;;;2.00;2.00;;;;;;;;5000519;28;11602;-74
2022/01/05 10:26:28;;;;;;;;;3.25;1.00;;;;;;;;4997864;28;11541;-74
2022/01/05 10:28:57;;;;;;;;;3.50;3.50;;;;;;;;5002495;28;12305;-75
2022/01/05 10:31:26;;;;;;;;;5.25;2.00;;;;;;;;5000271;28;11469;-74
2022/01/05 10:33:54;;;;;;;;;3.75;1.75;;;;;;;;5004094;28;11516;-75
2022/01/05 10:36:23;;;;;;;;;5.00;5.00;;;;;;;;5002294;28;12353;-75
2022/01/05 10:38:56;;;;;;;;;5.50;3.75;;;;;;;;5006908;28;11558;-74
2022/01/05 10:41:24;;;;;;;;;2.00;2.00;;;;;;;;5006171;28;11512;-75
2022/01/05 10:44:14;;;;;;;;;2.75;1.50;;;;;;;;5005749;28;11513;-75
2022/01/05 10:46:44;;;;;;;;;5.00;2.00;;;;;;;;4994862;28;11544;-75
2022/01/05 10:49:11;;;;;;;;;2.75;2.75;;;;;;;;5018079;28;11497;-75
2022/01/05 10:51:40;;;;;;;;;5.50;1.00;;;;;;;;5004797;28;11262;-76
2022/01/05 10:54:11;;;;;;;;;3.00;1.25;;;;;;;;5002111;28;11293;-76
2022/01/05 10:56:39;;;;;;;;;4.00;2.50;;;;;;;;5024125;28;12000;-75
2022/01/05 10:59:06;;;;;;;;;3.50;1.25;;;;;;;;5012956;28;11010;-75
2022/01/05 11:01:33;;;;;;;;;2.00;2.00;;;;;;;;5001750;28;10798;-76
2022/01/05 11:04:06;;;;;;;;;1.00;1.00;;;;;;;;5001274;28;10860;-74
2022/01/05 11:06:33;;;;;;;;;1.25;1.00;;;;;;;;5004625;28;10844;-76
2022/01/05 11:09:04;;;;;;;;;1.00;1.00;;;;;;;;5005413;28;10771;-77
2022/01/05 11:11:35;;;;;;;;;3.25;1.50;;;;;;;;5005193;28;10636;-76
2022/01/05 11:14:03;;;;;;;;;6.00;5.00;;;;;;;;5006269;28;10693;-75
2022/01/05 11:16:31;;;;;;;;;1.50;1.50;;;;;;;;5006283;28;11536;-78
2022/01/05 11:19:16;;;;;;;;;1.00;1.00;;;;;;;;5003337;28;10665;-77
2022/01/05 11:21:57;;;;;;;;;1.75;1.75;;;;;;;;5001433;28;10752;-77
2022/01/05 11:24:27;;;;;;;;;3.75;1.00;;;;;;;;5006056;28;10492;-77
2022/01/05 11:26:55;;;;;;;;;2.75;1.00;;;;;;;;5005434;28;10267;-78
2022/01/05 11:29:23;;;;;;;;;0.50;0.50;;;;;;;;5004620;28;10270;-75
2022/01/05 11:31:50;;;;;;;;;0.75;0.75;;;;;;;;5003744;28;10176;-74
2022/01/05 11:34:18;;;;;;;;;1.50;1.00;;;;;;;;5005960;28;10256;-74
2022/01/05 11:36:51;;;;;;;;;3.50;2.00;;;;;;;;5004125;28;10410;-76
2022/01/05 11:39:19;;;;;;;;;2.00;0.25;;;;;;;;5004120;28;10578;-75
2022/01/05 11:41:55;;;;;;;;;1.00;1.00;;;;;;;;5004747;28;10533;-75
2022/01/05 11:44:23;;;;;;;;;1.00;1.00;;;;;;;;5003774;28;10723;-74
2022/01/05 11:46:50;;;;;;;;;0.50;0.50;;;;;;;;5004389;28;10553;-74
2022/01/05 11:49:25;;;;;;;;;2.00;2.00;;;;;;;;5002453;28;10979;-73
2022/01/05 11:51:55;;;;;;;;;0.00;0.00;;;;;;;;5004154;28;11029;-74
2022/01/05 11:54:24;;;;;;;;;0.50;0.50;;;;;;;;5002107;28;10857;-74
2022/01/05 11:56:55;;;;;;;;;2.00;1.00;;;;;;;;5003493;28;10878;-78
2022/01/05 11:59:25;;;;;;;;;9.00;1.00;;;;;;;;5003142;28;10972;-76
2022/01/05 12:02:01;;;;;;;;;0.00;0.00;;;;;;;;5002912;28;10881;-77
2022/01/05 12:04:29;;;;;;;;;1.75;0.25;;;;;;;;5003155;28;11492;-79
2022/01/05 12:07:07;;;;;;;;;1.25;1.00;;;;;;;;5003804;28;11502;-74
2022/01/05 12:09:38;;;;;;;;;0.00;0.00;;;;;;;;5004531;28;10428;-74
2022/01/05 12:12:45;;;;;;;;;1.00;1.00;;;;;;;;5003187;28;10502;-74
2022/01/05 12:15:12;;;;;;;;;1.75;1.00;;;;;;;;4940441;28;10515;-71
2022/01/05 12:17:40;;;;;;;;;0.75;0.75;;;;;;;;4944339;28;10493;-75
2022/01/05 12:20:16;;;;;;;;;3.00;1.75;;;;;;;;4972010;28;10600;-80
2022/01/05 12:22:43;;;;;;;;;0.50;0.50;;;;;;;;5002951;28;11111;-76
2022/01/05 12:25:23;;;;;;;;;3.00;3.00;;;;;;;;5001585;28;10274;-73
2022/01/05 12:28:07;;;;;;;;;1.00;1.00;;;;;;;;5003996;28;10449;-74
2022/01/05 12:30:39;;;;;;;;;1.00;1.00;;;;;;;;5000632;28;10878;-75
2022/01/05 12:33:09;;;;;;;;;1.00;1.00;;;;;;;;5002203;28;10925;-74
2022/01/05 12:35:59;;;;;;;;;2.00;0.50;;;;;;;;5001228;28;10338;-73
2022/01/05 12:38:45;;;;;;;;;2.50;0.50;;;;;;;;5002609;28;10322;-73
2022/01/05 12:41:36;;;;;;;;;3.00;1.00;;;;;;;;4999441;28;10430;-73
2022/01/05 12:44:33;;;;;;;;;1.50;1.00;;;;;;;;5003811;28;10426;-73
2022/01/05 12:47:00;;;;;;;;;4.25;1.75;;;;;;;;4999689;28;10570;-76
2022/01/05 12:49:29;;;;;;;;;1.00;1.00;;;;;;;;5002098;28;10768;-73
2022/01/05 12:52:05;;;;;;;;;2.25;1.00;;;;;;;;5003112;28;10637;-72
2022/01/05 12:54:42;;;;;;;;;1.00;1.00;;;;;;;;5002117;28;10650;-72
2022/01/05 12:57:11;;;;;;;;;1.25;1.25;;;;;;;;5005799;28;10558;-72
2022/01/05 12:59:44;;;;;;;;;3.00;3.00;;;;;;;;5001853;28;10508;-73
2022/01/05 13:02:14;;;;;;;;;2.00;2.00;;;;;;;;5001502;28;10394;-76
2022/01/05 13:04:45;;;;;;;;;2.00;2.00;;;;;;;;5000195;28;10476;-73
2022/01/05 13:07:14;;;;;;;;;0.33;0.33;;;;;;;;5003815;28;10568;-73
2022/01/05 13:09:45;;;;;;;;;5.00;5.00;;;;;;;;5001939;28;10484;-75
2022/01/05 13:12:16;;;;;;;;;1.25;1.25;;;;;;;;5002074;28;10579;-73
2022/01/05 13:14:46;;;;;;;;;5.25;1.00;;;;;;;;5001676;28;10424;-73
2022/01/05 13:17:16;;;;;;;;;3.00;1.75;;;;;;;;5001537;28;10331;-75
2022/01/05 13:19:46;;;;;;;;;4.50;1.50;;;;;;;;5002920;28;11212;-73
2022/01/05 13:22:17;;;;;;;;;1.00;1.00;;;;;;;;5000598;28;11177;-74
2022/01/05 13:24:54;;;;;;;;;2.25;1.50;;;;;;;;5012821;28;10468;-74
2022/01/05 13:27:23;;;;;;;;;1.25;1.25;;;;;;;;5002064;28;10502;-73
2022/01/05 13:29:54;;;;;;;;;2.00;2.00;;;;;;;;5001893;28;10545;-71
2022/01/05 13:32:24;;;;;;;;;5.00;1.00;;;;;;;;5001942;28;10788;-77
2022/01/05 13:35:00;;;;;;;;;0.75;0.50;;;;;;;;5001262;28;10554;-75
2022/01/05 13:37:30;;;;;;;;;1.00;1.00;;;;;;;;5003501;28;10641;-73
2022/01/05 13:40:07;;;;;;;;;2.00;1.00;;;;;;;;5001626;28;10694;-74
2022/01/05 13:42:38;;;;;;;;;1.00;1.00;;;;;;;;5001296;28;10637;-74
2022/01/05 13:45:10;;;;;;;;;1.50;0.75;;;;;;;;5002529;28;10883;-74
2022/01/05 13:47:38;;;;;;;;;1.00;1.00;;;;;;;;5000669;28;11603;-74
2022/01/05 13:50:13;;;;;;;;;2.00;2.00;;;;;;;;5001267;28;10633;-75
2022/01/05 13:52:42;;;;;;;;;0.00;0.00;;;;;;;;4999826;28;10686;-75
2022/01/05 13:55:20;;;;;;;;;1.00;1.00;;;;;;;;5002214;28;10714;-80
2022/01/05 13:57:48;;;;;;;;;1.75;0.25;;;;;;;;5004386;28;10714;-76
2022/01/05 14:00:19;;;;;;;;;0.25;0.25;;;;;;;;5000888;28;10721;-78
2022/01/05 14:02:47;;;;;;;;;0.00;0.00;;;;;;;;5001264;28;10578;-79
2022/01/05 14:05:14;;;;;;;;;1.25;0.75;;;;;;;;4999134;28;10600;-76
2022/01/05 14:07:43;;;;;;;;;2.00;2.00;;;;;;;;5001008;28;10740;-76
2022/01/05 14:10:13;;;;;;;;;3.00;1.00;;;;;;;;4999136;28;10744;-77
2022/01/05 14:12:43;;;;;;;;;2.00;0.00;;;;;;;;5000951;28;10990;-73
2022/01/05 14:15:11;;;;;;;;;1.25;1.25;;;;;;;;5003243;28;10763;-72
2022/01/05 14:17:57;;;;;;;;;0.50;0.00;;;;;;;;5002404;28;11408;-80
2022/01/05 14:20:25;;;;;;;;;4.00;1.00;;;;;;;;5004551;28;10926;-73
2022/01/05 14:23:00;;;;;;;;;2.75;0.75;;;;;;;;5003282;28;10994;-74
2022/01/05 14:25:36;;;;;;;;;0.00;0.00;;;;;;;;5000985;28;11053;-76
2022/01/05 14:28:24;;;;;;;;;1.25;1.25;;;;;;;;5004937;28;10869;-77
2022/01/05 14:30:58;;;;;;;;;2.00;1.00;;;;;;;;5003102;28;10767;-76
2022/01/05 14:33:38;;;;;;;;;1.50;1.50;;;;;;;;5019460;28;10803;-76
2022/01/05 14:36:18;;;;;;;;;6.00;3.50;;;;;;;;5003262;28;11075;-75
2022/01/05 14:38:56;;;;;;;;;7.50;5.25;;;;;;;;5002542;28;10865;-77
2022/01/05 14:41:35;;;;;;;;;5.00;0.25;;;;;;;;5003052;28;10823;-76
2022/01/05 14:44:11;;;;;;;;;1.00;1.00;;;;;;;;5003881;28;10491;-79
2022/01/05 14:46:40;;;;;;;;;0.50;0.50;;;;;;;;5004040;28;10433;-76
2022/01/05 14:49:09;;;;;;;;;1.25;1.00;;;;;;;;4999453;28;10574;-76
2022/01/05 14:51:37;;;;;;;;;0.00;0.00;;;;;;;;5005992;28;10466;-76
2022/01/05 14:54:05;;;;;;;;;1.00;1.00;;;;;;;;5002890;28;10467;-74
2022/01/05 14:56:34;;;;;;;;;2.00;0.25;;;;;;;;5004404;28;10527;-74
2022/01/05 14:59:01;;;;;;;;;0.00;0.00;;;;;;;;5003059;28;10577;-78